»·PEaware :: AAL2083 KLAS-KPHX

AAL2083 :: KLAS-KPHX

FLIGHT INFORMATION

Flight Status: Arrived
Operator:
American Airlines
More flights by this operator :: More flights under this callsign
Pilot: James W. (12414)
Aircraft: BOEING 737-800
(B738)
More flights by this aircraft type
Origin: KLAS McCarran Intl
United States
Destination: KPHX Phoenix Sky Harbor Intl
United States
More flights between these airports :: More routes between these airports
Route: +PRFUM4 PRFUM WOTRO BRUSR1
File this flight plan on PilotEdge
Remarks:
Altitude:
(Current/Filed)
330ft
Speed:
(Current/Filed)
500kts
Departed: 07-Oct-18 12:17 PM
Arrived: 07-Oct-18 01:04 PM
Distance/Time
Traveled:
222nm/0:47
Distance/Time
To Go:
Arrived

Flight Plot

Page will automatically refresh every two minutes.

Flight plan parsing failed; only flown route is shown


Map Options




Map Legend


Flown Route
Filed Route
Departure Airport
Arrival Airport
Navaid (VOR, NDB)
Fix

Horizontal Profiles

Position Reports

Time Latitude Longitude Heading Altitude Ground
Speed
07-Oct-18 11:57 36.080587 -115.140599 134 2148ft 0kts
07-Oct-18 11:58 36.080587 -115.140599 134 2149ft 0kts
07-Oct-18 11:59 36.080587 -115.140599 134 2149ft 0kts
07-Oct-18 12:00 36.080587 -115.140599 134 2149ft 0kts
07-Oct-18 12:01 36.080587 -115.140599 134 2149ft 0kts
07-Oct-18 12:02 36.080587 -115.140599 134 2149ft 0kts
07-Oct-18 12:03 36.080587 -115.140599 134 2149ft 0kts
07-Oct-18 12:04 36.080587 -115.140599 134 2149ft 0kts
07-Oct-18 12:05 36.080587 -115.140599 134 2149ft 0kts
07-Oct-18 12:06 36.080587 -115.140599 134 2149ft 0kts
07-Oct-18 12:07 36.080587 -115.140599 134 2149ft 0kts
07-Oct-18 12:08 36.080587 -115.140599 134 2149ft 0kts
07-Oct-18 12:09 36.080614 -115.140636 153 2149ft 1kts
07-Oct-18 12:10 36.081038 -115.141081 136 2149ft 2kts
07-Oct-18 12:11 36.081399 -115.141011 226 2149ft 0kts
07-Oct-18 12:12 36.081399 -115.141011 226 2149ft 0kts
07-Oct-18 12:13 36.081399 -115.141011 226 2149ft 0kts
07-Oct-18 12:14 36.081399 -115.141011 226 2149ft 0kts
07-Oct-18 12:15 36.078631 -115.141521 169 2148ft 15kts
07-Oct-18 12:16 36.077517 -115.136138 89 2149ft 20kts
07-Oct-18 12:17 36.077539 -115.124849 90 2149ft 36kts
07-Oct-18 12:18 36.077130 -115.121347 161 2149ft 8kts
07-Oct-18 12:19 36.076382 -115.134419 270 2149ft 140kts
07-Oct-18 12:20 36.076011 -115.208214 274 4286ft 233kts
07-Oct-18 12:21 36.038844 -115.273708 203 6566ft 273kts
07-Oct-18 12:22 35.969584 -115.301087 181 8662ft 284kts
07-Oct-18 12:23 35.893189 -115.273941 154 10925ft 303kts
07-Oct-18 12:24 35.847782 -115.189348 102 13200ft 321kts
07-Oct-18 12:25 35.822166 -115.079303 97 15414ft 351kts
07-Oct-18 12:26 35.828525 -114.958877 81 17644ft 367kts
07-Oct-18 12:27 35.821159 -114.831210 110 18882ft 419kts
07-Oct-18 12:28 35.774316 -114.696080 111 20862ft 441kts
07-Oct-18 12:29 35.725473 -114.557161 111 22848ft 456kts
07-Oct-18 12:30 35.674092 -114.415995 117 23488ft 460kts
07-Oct-18 12:31 35.612779 -114.280855 117 25347ft 472kts
07-Oct-18 12:32 35.548255 -114.139625 117 27357ft 477kts
07-Oct-18 12:33 35.486092 -114.004151 117 28870ft 474kts
07-Oct-18 12:34 35.422510 -113.866152 117 28890ft 470kts
07-Oct-18 12:35 35.358753 -113.728323 117 28890ft 471kts
07-Oct-18 12:36 35.294924 -113.590903 117 28891ft 471kts
07-Oct-18 12:37 35.230749 -113.453286 117 28891ft 471kts
07-Oct-18 12:38 35.166591 -113.316265 119 28896ft 490kts
07-Oct-18 12:39 35.092134 -113.178798 122 28891ft 492kts
07-Oct-18 12:40 35.016312 -113.041671 122 27755ft 493kts
07-Oct-18 12:41 34.938713 -112.901730 126 26494ft 508kts
07-Oct-18 12:42 34.862042 -112.764012 128 25232ft 497kts
07-Oct-18 12:43 34.781285 -112.619636 128 23904ft 469kts
07-Oct-18 12:44 34.720439 -112.511333 128 23894ft 473kts
07-Oct-18 12:45 34.628012 -112.405296 147 23893ft 462kts
07-Oct-18 12:46 34.535097 -112.303003 138 23889ft 467kts
07-Oct-18 12:47 34.444628 -112.192492 146 23880ft 463kts
07-Oct-18 12:48 34.328595 -112.145563 176 23880ft 446kts
07-Oct-18 12:49 34.213008 -112.126619 176 21809ft 391kts
07-Oct-18 12:50 34.111836 -112.109778 176 19293ft 356kts
07-Oct-18 12:51 34.017797 -112.094378 176 16779ft 335kts
07-Oct-18 12:52 33.928734 -112.080450 176 14299ft 323kts
07-Oct-18 12:53 33.849848 -112.068859 175 12054ft 316kts
07-Oct-18 12:54 33.770156 -112.026852 154 9585ft 318kts
07-Oct-18 12:55 33.696227 -111.981844 157 8189ft 287kts
07-Oct-18 12:56 33.630385 -111.948171 157 7708ft 247kts
07-Oct-18 12:57 33.575528 -111.911014 131 6505ft 237kts
07-Oct-18 12:58 33.533565 -111.853182 130 4391ft 234kts
07-Oct-18 12:59 33.497347 -111.796301 120 4014ft 199kts
07-Oct-18 13:00 33.456689 -111.763340 199 4021ft 196kts
07-Oct-18 13:01 33.438786 -111.811273 275 4007ft 167kts
07-Oct-18 13:02 33.440439 -111.863896 271 3270ft 156kts
07-Oct-18 13:03 33.440880 -111.915538 272 2430ft 156kts
07-Oct-18 13:04 33.440703 -111.967220 271 1571ft 155kts
07-Oct-18 13:05 33.440853 -112.011182 271 1142ft 47kts
07-Oct-18 13:06 33.440162 -112.013535 187 1142ft 2kts
07-Oct-18 13:07 33.439757 -112.008614 89 1142ft 25kts
07-Oct-18 13:08 33.439108 -112.001059 211 1142ft 12kts

Navigation Log

Ident Type
Flight plan parsing failed, navigation log unavailable